createdAt,value
2019-01-13T00:01:23.752Z,1.30
2019-01-13T00:03:46.008Z,1.30
2019-01-13T00:06:08.277Z,1.40
2019-01-13T00:08:30.543Z,1.40
2019-01-13T00:10:52.795Z,1.40
2019-01-13T00:13:15.054Z,1.40
2019-01-13T00:15:37.348Z,1.40
2019-01-13T00:17:59.611Z,1.40
2019-01-13T00:20:21.903Z,1.40
2019-01-13T00:22:44.200Z,1.40
2019-01-13T00:25:06.499Z,1.40
2019-01-13T00:27:28.779Z,1.40
2019-01-13T00:29:51.148Z,1.40
2019-01-13T00:32:13.394Z,1.40
2019-01-13T00:34:35.884Z,1.40
2019-01-13T00:36:58.179Z,1.40
2019-01-13T00:39:20.431Z,1.40
2019-01-13T00:41:42.779Z,1.30
2019-01-13T00:44:05.149Z,1.30
2019-01-13T00:46:27.383Z,1.30
2019-01-13T00:48:49.708Z,1.40
2019-01-13T00:51:12.010Z,1.40
2019-01-13T00:53:34.278Z,1.40
2019-01-13T00:55:56.610Z,1.40
2019-01-13T00:58:19.052Z,1.40
2019-01-13T01:00:41.431Z,1.40
2019-01-13T01:03:03.862Z,1.50
2019-01-13T01:05:26.433Z,1.50
2019-01-13T01:07:49.344Z,1.40
2019-01-13T01:10:12.774Z,1.40
2019-01-13T01:12:35.195Z,1.40
2019-01-13T01:14:57.433Z,1.40
2019-01-13T01:17:19.701Z,1.50
2019-01-13T01:19:41.997Z,1.50
2019-01-13T01:22:04.762Z,1.50
2019-01-13T01:24:26.989Z,1.40
2019-01-13T01:26:49.321Z,1.50
2019-01-13T01:29:11.589Z,1.40
2019-01-13T01:31:33.869Z,1.40
2019-01-13T01:33:56.194Z,1.40
2019-01-13T01:36:18.548Z,1.40
2019-01-13T01:38:40.793Z,1.50
2019-01-13T01:41:03.157Z,1.50
2019-01-13T01:43:25.415Z,1.50
2019-01-13T01:45:47.702Z,1.50
2019-01-13T01:48:09.988Z,1.50
2019-01-13T01:50:32.372Z,1.50
2019-01-13T01:52:54.639Z,1.40
2019-01-13T01:55:18.158Z,1.40
2019-01-13T01:57:40.420Z,1.50
2019-01-13T02:00:05.103Z,1.50
2019-01-13T02:02:27.399Z,1.40
2019-01-13T02:04:49.746Z,1.40
2019-01-13T02:07:11.977Z,1.40
2019-01-13T02:09:34.241Z,1.40
2019-01-13T02:11:56.528Z,1.50
2019-01-13T02:14:18.763Z,1.50
2019-01-13T02:16:41.012Z,1.50
2019-01-13T02:19:03.410Z,1.50
2019-01-13T02:21:25.736Z,1.50
2019-01-13T02:23:48.005Z,1.50
2019-01-13T02:26:10.255Z,1.50
2019-01-13T02:28:32.562Z,1.50
2019-01-13T02:30:54.797Z,1.50
2019-01-13T02:33:17.054Z,1.50
2019-01-13T02:35:39.421Z,1.50
2019-01-13T02:38:01.673Z,1.50
2019-01-13T02:40:23.955Z,1.50
2019-01-13T02:42:46.279Z,1.50
2019-01-13T02:45:13.691Z,1.50
2019-01-13T02:47:35.906Z,1.60
2019-01-13T02:49:58.198Z,1.50
2019-01-13T02:52:20.472Z,1.50
2019-01-13T02:54:42.691Z,1.50
2019-01-13T02:57:04.972Z,1.50
2019-01-13T02:59:27.203Z,1.50
2019-01-13T03:01:49.439Z,1.60
2019-01-13T03:04:11.672Z,1.50
2019-01-13T03:06:33.933Z,1.50
2019-01-13T03:08:56.209Z,1.60
2019-01-13T03:11:18.456Z,1.60
2019-01-13T03:13:40.720Z,1.60
2019-01-13T03:16:03.085Z,1.60
2019-01-13T03:18:25.434Z,1.60
2019-01-13T03:20:47.741Z,1.50
2019-01-13T03:23:10.002Z,1.60
2019-01-13T03:25:32.277Z,1.60
2019-01-13T03:27:54.547Z,1.60
2019-01-13T03:30:18.629Z,1.60
2019-01-13T03:32:40.908Z,1.60
2019-01-13T03:35:04.454Z,1.60
2019-01-13T03:37:26.698Z,1.60
2019-01-13T03:39:48.968Z,1.70
2019-01-13T03:42:11.264Z,1.60
2019-01-13T03:44:33.550Z,1.60
2019-01-13T03:46:55.834Z,1.60
2019-01-13T03:49:18.068Z,1.60
2019-01-13T03:51:40.335Z,1.60
2019-01-13T03:54:02.614Z,1.60
2019-01-13T03:56:24.907Z,1.60
2019-01-13T03:58:47.172Z,1.60
2019-01-13T04:01:09.456Z,1.60
2019-01-13T04:03:31.804Z,1.60
2019-01-13T04:05:54.039Z,1.60
2019-01-13T04:08:16.317Z,1.70
2019-01-13T04:10:38.646Z,1.60
2019-01-13T04:13:00.912Z,1.70
2019-01-13T04:15:39.455Z,1.70
2019-01-13T04:18:01.757Z,1.60
2019-01-13T04:20:23.996Z,1.60
2019-01-13T04:22:46.251Z,1.60
2019-01-13T04:25:08.591Z,1.70
2019-01-13T04:27:30.870Z,1.70
2019-01-13T04:29:53.115Z,1.70
2019-01-13T04:32:15.352Z,1.70
2019-01-13T04:34:37.601Z,1.70
2019-01-13T04:36:59.947Z,1.70
2019-01-13T04:39:22.199Z,1.70
2019-01-13T04:41:44.433Z,1.70
2019-01-13T04:44:06.711Z,1.70
2019-01-13T04:46:28.968Z,1.70
2019-01-13T04:48:51.411Z,1.70
2019-01-13T04:51:13.683Z,1.70
2019-01-13T04:53:35.949Z,1.70
2019-01-13T04:55:58.217Z,1.70
2019-01-13T04:58:20.488Z,1.70
2019-01-13T05:00:42.759Z,1.70
2019-01-13T05:03:05.044Z,1.70
2019-01-13T05:05:27.355Z,1.70
2019-01-13T05:07:49.626Z,1.80
2019-01-13T05:10:14.322Z,1.70
2019-01-13T05:12:36.565Z,1.70
2019-01-13T05:14:58.875Z,1.70
2019-01-13T05:17:21.096Z,1.70
2019-01-13T05:19:43.432Z,1.70
2019-01-13T05:22:05.700Z,1.80
2019-01-13T05:24:27.955Z,1.70
2019-01-13T05:26:50.198Z,1.80
2019-01-13T05:29:12.507Z,1.80
2019-01-13T05:31:41.726Z,1.80
2019-01-13T05:33:57.054Z,1.80
2019-01-13T05:36:19.305Z,1.80
2019-01-13T05:38:41.626Z,1.80
2019-01-13T05:41:03.833Z,1.90
2019-01-13T05:43:26.121Z,1.90
2019-01-13T05:45:48.367Z,1.90
2019-01-13T05:48:10.613Z,1.90
2019-01-13T05:50:32.867Z,1.80
2019-01-13T05:52:55.180Z,1.80
2019-01-13T05:55:17.456Z,1.80
2019-01-13T05:57:39.684Z,1.80
2019-01-13T06:00:02.032Z,1.80
2019-01-13T06:02:24.269Z,1.80
2019-01-13T06:04:46.468Z,1.80
2019-01-13T06:07:08.746Z,1.80
2019-01-13T06:09:30.992Z,1.80
2019-01-13T06:11:53.220Z,1.80
2019-01-13T06:14:15.467Z,1.80
2019-01-13T06:16:37.731Z,1.80
2019-01-13T06:18:59.979Z,1.90
2019-01-13T06:21:22.287Z,1.80
2019-01-13T06:23:44.554Z,1.80
2019-01-13T06:26:06.889Z,1.80
2019-01-13T06:28:29.176Z,1.90
2019-01-13T06:30:51.403Z,1.90
2019-01-13T06:33:13.961Z,1.80
2019-01-13T06:35:36.218Z,1.80
2019-01-13T06:37:58.471Z,1.80
2019-01-13T06:40:21.378Z,1.80
2019-01-13T06:42:43.633Z,1.80
2019-01-13T06:45:09.107Z,1.90
2019-01-13T06:47:31.368Z,1.90
2019-01-13T06:49:53.592Z,1.80
2019-01-13T06:52:15.873Z,1.80
2019-01-13T06:54:38.144Z,1.80
2019-01-13T06:57:00.375Z,1.80
2019-01-13T06:59:22.631Z,1.80
2019-01-13T07:01:44.868Z,1.80
2019-01-13T07:04:07.128Z,1.80
2019-01-13T07:06:29.449Z,1.80
2019-01-13T07:08:51.716Z,1.80
2019-01-13T07:11:13.956Z,1.80
2019-01-13T07:13:36.205Z,1.80
2019-01-13T07:15:58.480Z,1.80
2019-01-13T07:18:20.769Z,1.90
2019-01-13T07:20:43.025Z,1.90
2019-01-13T07:23:05.305Z,1.90
2019-01-13T07:25:27.544Z,1.90
2019-01-13T07:27:49.806Z,1.90
2019-01-13T07:30:15.470Z,1.90
2019-01-13T07:32:37.739Z,1.90
2019-01-13T07:34:59.972Z,1.90
2019-01-13T07:37:22.411Z,1.90
2019-01-13T07:39:44.698Z,1.90
2019-01-13T07:42:06.972Z,1.90
2019-01-13T07:44:29.246Z,1.90
2019-01-13T07:46:51.508Z,1.90
2019-01-13T07:49:13.818Z,1.90
2019-01-13T07:51:36.092Z,1.90
2019-01-13T07:53:58.325Z,1.90
2019-01-13T07:56:20.581Z,1.80
2019-01-13T07:58:42.961Z,1.90
2019-01-13T08:01:05.677Z,1.90
2019-01-13T08:03:28.004Z,1.90
2019-01-13T08:05:50.291Z,1.90
2019-01-13T08:08:12.591Z,1.90
2019-01-13T08:10:35.059Z,1.90
2019-01-13T08:12:57.471Z,1.90
2019-01-13T08:15:20.305Z,1.90
2019-01-13T08:17:42.571Z,1.90
2019-01-13T08:20:07.232Z,1.90
2019-01-13T08:22:29.468Z,1.90
2019-01-13T08:24:51.728Z,1.90
2019-01-13T08:27:14.024Z,1.90
2019-01-13T08:29:36.288Z,1.90
2019-01-13T08:31:58.652Z,1.90
2019-01-13T08:34:20.915Z,1.90
2019-01-13T08:36:43.143Z,1.90
2019-01-13T08:39:06.908Z,2.00
2019-01-13T08:41:29.185Z,2.00
2019-01-13T08:43:51.439Z,2.00
2019-01-13T08:46:13.702Z,2.00
2019-01-13T08:48:35.967Z,2.10
2019-01-13T08:50:58.355Z,2.10
2019-01-13T08:53:20.645Z,2.10
2019-01-13T08:55:42.922Z,2.10
2019-01-13T08:58:05.223Z,2.10
2019-01-13T09:00:30.926Z,2.10
2019-01-13T09:02:53.203Z,2.10
2019-01-13T09:05:15.530Z,2.10
2019-01-13T09:07:37.777Z,2.10
2019-01-13T09:10:00.096Z,2.10
2019-01-13T09:12:22.354Z,2.10
2019-01-13T09:14:44.591Z,2.10
2019-01-13T09:17:06.880Z,2.10
2019-01-13T09:19:29.129Z,2.10
2019-01-13T09:21:51.379Z,2.20
2019-01-13T09:24:13.648Z,2.20
2019-01-13T09:26:36.006Z,2.20
2019-01-13T09:28:58.227Z,2.20
2019-01-13T09:31:20.532Z,2.20
2019-01-13T09:33:42.777Z,2.20
2019-01-13T09:36:05.045Z,2.20
2019-01-13T09:38:27.314Z,2.20
2019-01-13T09:40:49.627Z,2.20
2019-01-13T09:43:11.936Z,2.20
2019-01-13T09:45:34.189Z,2.30
2019-01-13T09:47:56.475Z,2.30
2019-01-13T09:50:19.196Z,2.30
2019-01-13T09:52:41.508Z,2.40
2019-01-13T09:55:04.652Z,2.30
2019-01-13T09:57:26.936Z,2.40
2019-01-13T09:59:49.225Z,2.30
2019-01-13T10:02:11.523Z,2.30
2019-01-13T10:04:33.850Z,2.30
2019-01-13T10:06:56.200Z,2.30
2019-01-13T10:09:18.460Z,2.30
2019-01-13T10:11:40.751Z,2.40
2019-01-13T10:14:03.064Z,2.40
2019-01-13T10:16:25.339Z,2.40
2019-01-13T10:18:47.633Z,2.40
2019-01-13T10:21:09.922Z,2.40
2019-01-13T10:23:32.247Z,2.50
2019-01-13T10:25:54.483Z,2.50
2019-01-13T10:28:16.831Z,2.50
2019-01-13T10:30:39.128Z,2.50
2019-01-13T10:33:01.469Z,2.50
2019-01-13T10:35:23.831Z,2.50
2019-01-13T10:37:46.174Z,2.50
2019-01-13T10:40:11.609Z,2.50
2019-01-13T10:42:33.856Z,2.60
2019-01-13T10:44:56.119Z,2.60
2019-01-13T10:47:18.460Z,2.60
2019-01-13T10:49:40.788Z,2.50
2019-01-13T10:52:03.111Z,2.50
2019-01-13T10:54:25.390Z,2.50
2019-01-13T10:56:47.997Z,2.50
2019-01-13T10:59:10.241Z,2.40
2019-01-13T11:01:32.472Z,2.40
2019-01-13T11:03:54.707Z,2.40
2019-01-13T11:06:17.086Z,2.40
2019-01-13T11:08:39.339Z,2.40
2019-01-13T11:11:01.693Z,2.40
2019-01-13T11:13:23.989Z,2.30
2019-01-13T11:15:46.289Z,2.30
2019-01-13T11:18:08.590Z,2.30
2019-01-13T11:20:33.330Z,2.30
2019-01-13T11:22:55.626Z,2.20
2019-01-13T11:25:18.004Z,2.20
2019-01-13T11:27:40.321Z,2.20
2019-01-13T11:30:02.687Z,2.20
2019-01-13T11:32:24.991Z,2.20
2019-01-13T11:34:47.214Z,2.20
2019-01-13T11:37:09.465Z,2.20
2019-01-13T11:39:31.687Z,2.20
2019-01-13T11:41:53.960Z,2.10
2019-01-13T11:44:16.212Z,2.10
2019-01-13T11:46:38.461Z,2.10
2019-01-13T11:49:00.767Z,2.10
2019-01-13T11:51:23.025Z,2.00
2019-01-13T11:53:45.322Z,2.00
2019-01-13T11:56:07.555Z,2.00
2019-01-13T11:58:29.769Z,2.00
2019-01-13T12:00:51.997Z,2.00
2019-01-13T12:03:17.133Z,2.00
2019-01-13T12:05:36.571Z,1.90
2019-01-13T12:07:58.828Z,1.90
2019-01-13T12:10:21.110Z,1.90
2019-01-13T12:12:43.375Z,1.80
2019-01-13T12:15:08.256Z,1.80
2019-01-13T12:17:30.500Z,1.80
2019-01-13T12:19:52.739Z,1.80
2019-01-13T12:22:14.996Z,1.80
2019-01-13T12:24:37.216Z,1.80
2019-01-13T12:26:59.473Z,1.80
2019-01-13T12:29:21.747Z,1.80
2019-01-13T12:31:44.003Z,1.80
2019-01-13T12:34:06.251Z,1.80
2019-01-13T12:36:28.559Z,1.80
2019-01-13T12:38:50.841Z,1.80
2019-01-13T12:41:13.130Z,1.80
2019-01-13T12:43:35.421Z,1.80
2019-01-13T12:45:57.679Z,1.70
2019-01-13T12:48:19.987Z,1.70
2019-01-13T12:50:42.300Z,1.70
2019-01-13T12:53:04.746Z,1.70
2019-01-13T12:55:27.113Z,1.80
2019-01-13T12:57:49.387Z,1.80
2019-01-13T13:00:13.599Z,1.70
2019-01-13T13:02:35.926Z,1.80
2019-01-13T13:04:58.213Z,1.80
2019-01-13T13:07:20.469Z,1.80
2019-01-13T13:09:42.745Z,1.80
2019-01-13T13:12:05.017Z,1.90
2019-01-13T13:14:27.278Z,1.80
2019-01-13T13:16:49.549Z,1.90
2019-01-13T13:19:12.167Z,1.80
2019-01-13T13:21:34.428Z,1.80
2019-01-13T13:23:56.689Z,1.80
2019-01-13T13:26:18.992Z,1.80
2019-01-13T13:28:41.254Z,1.80
2019-01-13T13:31:03.564Z,1.80
2019-01-13T13:33:25.899Z,1.80
2019-01-13T13:35:48.224Z,1.90
2019-01-13T13:38:10.539Z,1.80
2019-01-13T13:40:32.771Z,1.80
2019-01-13T13:42:55.047Z,1.80
2019-01-13T13:45:17.634Z,1.80
2019-01-13T13:47:39.946Z,1.80
2019-01-13T13:50:02.483Z,1.80
2019-01-13T13:52:24.734Z,1.80
2019-01-13T13:54:47.036Z,1.80
2019-01-13T13:57:09.307Z,1.80
2019-01-13T13:59:31.585Z,1.90
2019-01-13T14:01:53.845Z,1.90
2019-01-13T14:04:16.100Z,1.80
2019-01-13T14:06:38.411Z,1.90
2019-01-13T14:09:00.700Z,1.90
2019-01-13T14:11:22.963Z,1.90
2019-01-13T14:13:45.244Z,1.90
2019-01-13T14:16:07.512Z,1.90
2019-01-13T14:18:29.789Z,2.00
2019-01-13T14:20:52.190Z,2.00
2019-01-13T14:23:14.408Z,2.00
2019-01-13T14:25:36.661Z,2.00
2019-01-13T14:27:58.926Z,2.00
2019-01-13T14:30:23.256Z,2.10
2019-01-13T14:32:45.555Z,2.10
2019-01-13T14:35:07.882Z,2.10
2019-01-13T14:37:30.127Z,2.10
2019-01-13T14:39:52.391Z,2.10
2019-01-13T14:42:14.638Z,2.10
2019-01-13T14:44:36.897Z,2.10
2019-01-13T14:46:59.208Z,2.20
2019-01-13T14:49:21.459Z,2.20
2019-01-13T14:51:43.930Z,2.20
2019-01-13T14:54:06.223Z,2.20
2019-01-13T14:56:28.517Z,2.20
2019-01-13T14:58:50.779Z,2.20
2019-01-13T15:01:13.043Z,2.20
2019-01-13T15:03:35.301Z,2.20
2019-01-13T15:05:57.541Z,2.20
2019-01-13T15:08:19.775Z,2.20
2019-01-13T15:10:42.032Z,2.20
2019-01-13T15:13:04.704Z,2.20
2019-01-13T15:15:26.998Z,2.20
2019-01-13T15:17:49.322Z,2.20
2019-01-13T15:20:13.801Z,2.30
2019-01-13T15:22:36.083Z,2.30
2019-01-13T15:24:58.308Z,2.30
2019-01-13T15:27:20.544Z,2.40
2019-01-13T15:29:42.830Z,2.40
2019-01-13T15:32:05.113Z,2.40
2019-01-13T15:34:27.452Z,2.50
2019-01-13T15:36:49.680Z,2.50
2019-01-13T15:39:11.956Z,2.50
2019-01-13T15:41:34.199Z,2.50
2019-01-13T15:43:56.453Z,2.60
2019-01-13T15:46:18.769Z,2.60
2019-01-13T15:48:41.100Z,2.50
2019-01-13T15:51:03.488Z,2.50
2019-01-13T15:53:25.956Z,2.50
2019-01-13T15:55:48.159Z,2.60
2019-01-13T15:58:10.432Z,2.70
2019-01-13T16:00:34.556Z,2.70
2019-01-13T16:02:56.793Z,2.70
2019-01-13T16:05:19.025Z,2.90
2019-01-13T16:07:41.349Z,3.10
2019-01-13T16:10:06.580Z,3.10
2019-01-13T16:12:28.908Z,3.10
2019-01-13T16:14:51.223Z,3.10
2019-01-13T16:17:13.504Z,3.00
2019-01-13T16:19:35.739Z,3.00
2019-01-13T16:21:58.232Z,3.00
2019-01-13T16:24:20.735Z,2.90
2019-01-13T16:26:43.422Z,2.90
2019-01-13T16:29:06.023Z,2.90
2019-01-13T16:31:29.040Z,2.90
2019-01-13T16:33:51.416Z,2.90
2019-01-13T16:36:13.870Z,2.90
2019-01-13T16:38:36.266Z,2.90
2019-01-13T16:40:58.656Z,2.90
2019-01-13T16:43:20.938Z,2.90
2019-01-13T16:45:43.625Z,2.90
2019-01-13T16:48:06.295Z,2.90
2019-01-13T16:50:28.891Z,2.90
2019-01-13T16:52:53.189Z,2.90
2019-01-13T16:55:16.133Z,3.00
2019-01-13T16:57:38.702Z,3.00
2019-01-13T17:00:01.091Z,2.90
2019-01-13T17:02:23.811Z,3.00
2019-01-13T17:04:46.332Z,3.00
2019-01-13T17:07:09.082Z,3.00
2019-01-13T17:09:31.588Z,3.00
2019-01-13T17:11:54.440Z,3.00
2019-01-13T17:14:17.046Z,3.00
2019-01-13T17:16:39.803Z,3.00
2019-01-13T17:19:02.416Z,3.00
2019-01-13T17:21:24.800Z,3.10
2019-01-13T17:23:47.196Z,3.10
2019-01-13T17:26:09.700Z,3.10
2019-01-13T17:28:32.479Z,3.10
2019-01-13T17:30:55.447Z,3.10
2019-01-13T17:33:17.956Z,3.10
2019-01-13T17:35:41.227Z,3.10
2019-01-13T17:38:04.780Z,3.00
2019-01-13T17:40:27.514Z,3.00
2019-01-13T17:42:50.454Z,3.10
2019-01-13T17:45:14.648Z,3.10
2019-01-13T17:47:37.286Z,3.10
2019-01-13T17:50:00.247Z,3.10
2019-01-13T17:52:22.846Z,3.10
2019-01-13T17:54:45.405Z,3.10
2019-01-13T17:57:07.969Z,3.10
2019-01-13T17:59:30.868Z,3.10
2019-01-13T18:01:55.287Z,3.10
2019-01-13T18:04:17.933Z,3.10
2019-01-13T18:06:40.343Z,3.10
2019-01-13T18:09:03.739Z,3.20
2019-01-13T18:11:27.299Z,3.20
2019-01-13T18:13:49.931Z,3.20
2019-01-13T18:16:12.743Z,3.20
2019-01-13T18:19:59.988Z,3.30
2019-01-13T18:22:22.342Z,3.30
2019-01-13T18:24:44.805Z,3.30
2019-01-13T18:27:07.328Z,3.30
2019-01-13T18:29:29.832Z,3.20
2019-01-13T18:31:52.266Z,3.30
2019-01-13T18:34:15.201Z,3.20
2019-01-13T18:36:38.324Z,3.20
2019-01-13T18:39:00.644Z,3.20
2019-01-13T18:41:22.899Z,3.20
2019-01-13T18:43:45.224Z,3.20
2019-01-13T18:46:07.523Z,3.20
2019-01-13T18:48:29.839Z,3.30
2019-01-13T18:50:52.215Z,3.30
2019-01-13T18:53:15.059Z,3.30
2019-01-13T18:55:37.325Z,3.30
2019-01-13T18:57:59.604Z,3.40
2019-01-13T19:00:21.959Z,3.40
2019-01-13T19:02:44.223Z,3.40
2019-01-13T19:05:08.343Z,3.40
2019-01-13T19:07:30.612Z,3.40
2019-01-13T19:09:52.869Z,3.40
2019-01-13T19:12:15.129Z,3.40
2019-01-13T19:14:40.922Z,3.40
2019-01-13T19:17:06.085Z,3.40
2019-01-13T19:19:35.008Z,3.40
2019-01-13T19:21:57.280Z,3.40
2019-01-13T19:24:19.581Z,3.40
2019-01-13T19:26:41.935Z,3.40
2019-01-13T19:29:04.247Z,3.40
2019-01-13T19:31:26.548Z,3.40
2019-01-13T19:33:48.887Z,3.40
2019-01-13T19:36:11.164Z,3.50
2019-01-13T19:38:33.424Z,3.40
2019-01-13T19:40:55.667Z,3.50
2019-01-13T19:43:17.985Z,3.40
2019-01-13T19:45:40.251Z,3.40
2019-01-13T19:48:02.576Z,3.40
2019-01-13T19:50:25.279Z,3.40
2019-01-13T19:52:47.839Z,3.40
2019-01-13T19:55:11.827Z,3.40
2019-01-13T19:59:03.750Z,3.50
2019-01-13T20:01:27.208Z,3.40
2019-01-13T20:03:50.311Z,3.40
2019-01-13T20:06:13.340Z,3.40
2019-01-13T20:08:36.184Z,3.40
2019-01-13T20:10:58.604Z,3.40
2019-01-13T20:13:21.672Z,3.40
2019-01-13T20:15:44.169Z,3.40
2019-01-13T20:18:06.463Z,3.40
2019-01-13T20:20:29.074Z,3.50
2019-01-13T20:22:51.792Z,3.50
2019-01-13T20:25:14.584Z,3.60
2019-01-13T20:27:38.173Z,3.50
2019-01-13T20:30:01.065Z,3.50
2019-01-13T20:32:24.097Z,3.50
2019-01-13T20:34:46.506Z,3.60
2019-01-13T20:37:09.273Z,3.60
2019-01-13T20:39:31.584Z,3.60
2019-01-13T20:41:54.699Z,3.60
2019-01-13T20:44:17.279Z,3.70
2019-01-13T20:46:40.435Z,3.70
2019-01-13T20:49:03.705Z,3.70
2019-01-13T20:51:26.661Z,3.70
2019-01-13T20:53:50.034Z,3.70
2019-01-13T20:56:13.070Z,3.70
2019-01-13T20:58:45.041Z,3.70
2019-01-13T21:01:07.449Z,3.70
2019-01-13T21:03:31.631Z,3.70
2019-01-13T21:05:54.661Z,3.80
2019-01-13T21:08:17.892Z,3.80
2019-01-13T21:10:40.546Z,3.80
2019-01-13T21:13:03.535Z,3.80
2019-01-13T21:15:29.502Z,3.80
2019-01-13T21:17:57.469Z,3.80
2019-01-13T21:20:17.328Z,3.80
2019-01-13T21:22:39.723Z,3.90
2019-01-13T21:25:03.128Z,3.90
2019-01-13T21:27:25.991Z,3.90
2019-01-13T21:29:48.775Z,3.90
2019-01-13T21:32:11.913Z,3.90
2019-01-13T21:34:34.486Z,3.90
2019-01-13T21:36:57.534Z,3.90
2019-01-13T21:39:20.304Z,3.90
2019-01-13T21:41:44.860Z,3.90
2019-01-13T21:44:07.208Z,4.00
2019-01-13T21:46:30.115Z,3.90
2019-01-13T21:48:53.640Z,3.90
2019-01-13T21:51:16.917Z,4.00
2019-01-13T21:55:04.837Z,4.00
2019-01-13T21:57:29.736Z,4.00
2019-01-13T21:59:52.493Z,4.00
2019-01-13T22:02:15.981Z,4.00
2019-01-13T22:04:39.269Z,4.10
2019-01-13T22:07:01.771Z,4.20
2019-01-13T22:09:24.983Z,4.20
2019-01-13T22:11:47.722Z,4.30
2019-01-13T22:14:11.049Z,4.30
2019-01-13T22:16:34.278Z,4.20
2019-01-13T22:18:57.535Z,4.10
2019-01-13T22:21:20.934Z,4.10
2019-01-13T22:23:43.972Z,4.10
2019-01-13T22:26:06.935Z,4.10
2019-01-13T22:28:29.643Z,4.10
2019-01-13T22:30:53.089Z,4.10
2019-01-13T22:33:15.899Z,4.10
2019-01-13T22:35:38.838Z,4.10
2019-01-13T22:38:01.780Z,4.10
2019-01-13T22:40:24.809Z,4.10
2019-01-13T22:42:48.302Z,4.10
2019-01-13T22:45:13.742Z,4.10
2019-01-13T22:47:36.632Z,4.10
2019-01-13T22:49:58.903Z,4.10
2019-01-13T22:52:22.068Z,4.10
2019-01-13T22:54:44.978Z,4.10
2019-01-13T22:57:08.078Z,4.10
2019-01-13T22:59:30.883Z,4.10
2019-01-13T23:01:55.278Z,4.00
2019-01-13T23:04:18.795Z,4.00
2019-01-13T23:06:42.058Z,4.00
2019-01-13T23:09:07.880Z,4.00
2019-01-13T23:11:30.147Z,4.00
2019-01-13T23:13:53.606Z,4.00
2019-01-13T23:16:16.938Z,3.90
2019-01-13T23:18:40.612Z,3.90
2019-01-13T23:21:04.062Z,3.90
2019-01-13T23:23:27.426Z,3.90
2019-01-13T23:25:50.339Z,3.90
2019-01-13T23:28:12.941Z,3.80
2019-01-13T23:30:36.458Z,3.80
2019-01-13T23:32:58.709Z,3.70
2019-01-13T23:35:20.989Z,3.80
2019-01-13T23:37:43.235Z,3.80
2019-01-13T23:40:05.588Z,3.80
2019-01-13T23:42:27.928Z,3.70
2019-01-13T23:44:50.196Z,3.80
2019-01-13T23:47:12.479Z,3.80
2019-01-13T23:49:34.731Z,3.70
2019-01-13T23:51:56.951Z,3.70
2019-01-13T23:54:19.226Z,3.80
2019-01-13T23:56:41.482Z,3.80
2019-01-13T23:59:03.787Z,3.80
